sensor_id;sensor_type;location;lat;lon;timestamp;P1;durP1;ratioP1;P2;durP2;ratioP2
71730;SDS011;65964;43.496;3.710;2023-05-23T00:00:53;4.63;;;3.10;;
71730;SDS011;65964;43.496;3.710;2023-05-23T00:03:19;4.80;;;2.65;;
71730;SDS011;65964;43.496;3.710;2023-05-23T00:05:47;6.35;;;2.63;;
71730;SDS011;65964;43.496;3.710;2023-05-23T00:08:13;4.03;;;2.58;;
71730;SDS011;65964;43.496;3.710;2023-05-23T00:10:40;4.47;;;2.70;;
71730;SDS011;65964;43.496;3.710;2023-05-23T00:13:06;3.63;;;2.60;;
71730;SDS011;65964;43.496;3.710;2023-05-23T00:15:36;4.07;;;2.55;;
71730;SDS011;65964;43.496;3.710;2023-05-23T00:18:02;4.53;;;2.90;;
71730;SDS011;65964;43.496;3.710;2023-05-23T00:20:29;5.85;;;2.92;;
71730;SDS011;65964;43.496;3.710;2023-05-23T00:22:56;5.43;;;2.85;;
71730;SDS011;65964;43.496;3.710;2023-05-23T00:25:27;4.85;;;2.60;;
71730;SDS011;65964;43.496;3.710;2023-05-23T00:28:01;4.95;;;2.88;;
71730;SDS011;65964;43.496;3.710;2023-05-23T00:30:28;4.13;;;2.88;;
71730;SDS011;65964;43.496;3.710;2023-05-23T00:32:54;6.35;;;3.40;;
71730;SDS011;65964;43.496;3.710;2023-05-23T00:35:20;6.30;;;3.17;;
71730;SDS011;65964;43.496;3.710;2023-05-23T00:37:47;9.93;;;3.60;;
71730;SDS011;65964;43.496;3.710;2023-05-23T00:40:15;7.32;;;3.42;;
71730;SDS011;65964;43.496;3.710;2023-05-23T00:42:42;6.05;;;3.33;;
71730;SDS011;65964;43.496;3.710;2023-05-23T00:45:08;5.28;;;3.30;;
71730;SDS011;65964;43.496;3.710;2023-05-23T00:47:34;6.10;;;3.38;;
71730;SDS011;65964;43.496;3.710;2023-05-23T00:50:00;6.30;;;3.20;;
71730;SDS011;65964;43.496;3.710;2023-05-23T00:52:26;6.95;;;3.55;;
71730;SDS011;65964;43.496;3.710;2023-05-23T00:54:52;4.80;;;3.20;;
71730;SDS011;65964;43.496;3.710;2023-05-23T00:57:18;4.85;;;3.40;;
71730;SDS011;65964;43.496;3.710;2023-05-23T00:59:44;5.88;;;3.40;;
71730;SDS011;65964;43.496;3.710;2023-05-23T01:02:10;4.93;;;3.33;;
71730;SDS011;65964;43.496;3.710;2023-05-23T01:04:37;5.82;;;3.28;;
71730;SDS011;65964;43.496;3.710;2023-05-23T01:07:03;6.10;;;3.13;;
71730;SDS011;65964;43.496;3.710;2023-05-23T01:09:29;4.57;;;3.05;;
71730;SDS011;65964;43.496;3.710;2023-05-23T01:12:11;4.90;;;2.80;;
71730;SDS011;65964;43.496;3.710;2023-05-23T01:17:23;5.47;;;3.20;;
71730;SDS011;65964;43.496;3.710;2023-05-23T01:19:58;4.68;;;3.00;;
71730;SDS011;65964;43.496;3.710;2023-05-23T01:25:03;5.85;;;3.08;;
71730;SDS011;65964;43.496;3.710;2023-05-23T01:27:47;4.28;;;2.80;;
71730;SDS011;65964;43.496;3.710;2023-05-23T01:30:15;6.15;;;2.88;;
71730;SDS011;65964;43.496;3.710;2023-05-23T01:32:43;6.15;;;2.72;;
71730;SDS011;65964;43.496;3.710;2023-05-23T01:35:10;6.50;;;3.10;;
71730;SDS011;65964;43.496;3.710;2023-05-23T01:37:36;4.88;;;2.92;;
71730;SDS011;65964;43.496;3.710;2023-05-23T01:40:02;5.00;;;2.60;;
71730;SDS011;65964;43.496;3.710;2023-05-23T01:42:28;5.65;;;2.90;;
71730;SDS011;65964;43.496;3.710;2023-05-23T01:44:55;5.18;;;2.80;;
71730;SDS011;65964;43.496;3.710;2023-05-23T01:47:23;3.92;;;2.70;;
71730;SDS011;65964;43.496;3.710;2023-05-23T01:49:50;5.38;;;2.60;;
71730;SDS011;65964;43.496;3.710;2023-05-23T01:52:17;4.32;;;2.88;;
71730;SDS011;65964;43.496;3.710;2023-05-23T01:54:43;5.43;;;2.70;;
71730;SDS011;65964;43.496;3.710;2023-05-23T01:57:13;4.05;;;2.85;;
71730;SDS011;65964;43.496;3.710;2023-05-23T01:59:39;6.85;;;2.85;;
71730;SDS011;65964;43.496;3.710;2023-05-23T02:02:05;4.60;;;2.70;;
71730;SDS011;65964;43.496;3.710;2023-05-23T02:04:31;4.38;;;2.80;;
71730;SDS011;65964;43.496;3.710;2023-05-23T02:06:57;5.30;;;2.90;;
71730;SDS011;65964;43.496;3.710;2023-05-23T02:09:23;5.55;;;2.90;;
71730;SDS011;65964;43.496;3.710;2023-05-23T02:11:49;5.90;;;3.03;;
71730;SDS011;65964;43.496;3.710;2023-05-23T02:14:15;5.63;;;2.78;;
71730;SDS011;65964;43.496;3.710;2023-05-23T02:16:42;4.78;;;2.67;;
71730;SDS011;65964;43.496;3.710;2023-05-23T02:19:08;6.13;;;2.88;;
71730;SDS011;65964;43.496;3.710;2023-05-23T02:21:34;4.60;;;2.80;;
71730;SDS011;65964;43.496;3.710;2023-05-23T02:24:00;5.68;;;2.70;;
71730;SDS011;65964;43.496;3.710;2023-05-23T02:26:26;6.50;;;2.78;;
71730;SDS011;65964;43.496;3.710;2023-05-23T02:28:52;5.45;;;3.10;;
71730;SDS011;65964;43.496;3.710;2023-05-23T02:31:19;6.38;;;2.80;;
71730;SDS011;65964;43.496;3.710;2023-05-23T02:33:45;3.67;;;2.70;;
71730;SDS011;65964;43.496;3.710;2023-05-23T02:36:11;6.50;;;3.63;;
71730;SDS011;65964;43.496;3.710;2023-05-23T02:38:37;5.75;;;2.90;;
71730;SDS011;65964;43.496;3.710;2023-05-23T02:41:03;4.15;;;2.90;;
71730;SDS011;65964;43.496;3.710;2023-05-23T02:43:29;7.35;;;3.40;;
71730;SDS011;65964;43.496;3.710;2023-05-23T02:45:55;4.18;;;2.70;;
71730;SDS011;65964;43.496;3.710;2023-05-23T02:48:22;5.32;;;3.00;;
71730;SDS011;65964;43.496;3.710;2023-05-23T02:50:48;4.45;;;2.70;;
71730;SDS011;65964;43.496;3.710;2023-05-23T02:53:14;6.00;;;2.92;;
71730;SDS011;65964;43.496;3.710;2023-05-23T02:55:40;4.72;;;2.80;;
71730;SDS011;65964;43.496;3.710;2023-05-23T02:58:07;3.97;;;2.85;;
71730;SDS011;65964;43.496;3.710;2023-05-23T03:00:33;5.70;;;2.72;;
71730;SDS011;65964;43.496;3.710;2023-05-23T03:02:59;4.72;;;3.10;;
71730;SDS011;65964;43.496;3.710;2023-05-23T03:05:25;6.60;;;2.88;;
71730;SDS011;65964;43.496;3.710;2023-05-23T03:07:51;4.65;;;3.05;;
71730;SDS011;65964;43.496;3.710;2023-05-23T03:10:18;4.68;;;2.90;;
71730;SDS011;65964;43.496;3.710;2023-05-23T03:12:45;8.45;;;3.25;;
71730;SDS011;65964;43.496;3.710;2023-05-23T03:15:11;5.28;;;2.85;;
71730;SDS011;65964;43.496;3.710;2023-05-23T03:17:37;5.95;;;3.00;;
71730;SDS011;65964;43.496;3.710;2023-05-23T03:20:03;17.48;;;4.30;;
71730;SDS011;65964;43.496;3.710;2023-05-23T03:22:33;9.98;;;3.78;;
71730;SDS011;65964;43.496;3.710;2023-05-23T03:24:59;7.45;;;3.35;;
71730;SDS011;65964;43.496;3.710;2023-05-23T03:27:25;5.10;;;3.33;;
71730;SDS011;65964;43.496;3.710;2023-05-23T03:29:51;10.63;;;3.30;;
71730;SDS011;65964;43.496;3.710;2023-05-23T03:32:17;7.07;;;3.35;;
71730;SDS011;65964;43.496;3.710;2023-05-23T03:34:43;6.57;;;2.97;;
71730;SDS011;65964;43.496;3.710;2023-05-23T03:37:10;14.45;;;4.10;;
71730;SDS011;65964;43.496;3.710;2023-05-23T03:39:36;9.65;;;3.40;;
71730;SDS011;65964;43.496;3.710;2023-05-23T03:42:02;6.03;;;3.20;;
71730;SDS011;65964;43.496;3.710;2023-05-23T03:44:28;7.13;;;3.42;;
71730;SDS011;65964;43.496;3.710;2023-05-23T03:46:54;9.57;;;3.40;;
71730;SDS011;65964;43.496;3.710;2023-05-23T03:49:20;8.82;;;4.13;;
71730;SDS011;65964;43.496;3.710;2023-05-23T03:51:46;10.35;;;4.43;;
71730;SDS011;65964;43.496;3.710;2023-05-23T03:54:12;10.10;;;3.95;;
71730;SDS011;65964;43.496;3.710;2023-05-23T03:56:38;6.65;;;3.10;;
71730;SDS011;65964;43.496;3.710;2023-05-23T03:59:04;7.13;;;3.28;;
71730;SDS011;65964;43.496;3.710;2023-05-23T04:01:30;8.68;;;3.55;;
71730;SDS011;65964;43.496;3.710;2023-05-23T04:03:56;10.23;;;3.85;;
71730;SDS011;65964;43.496;3.710;2023-05-23T04:06:24;19.02;;;5.03;;
71730;SDS011;65964;43.496;3.710;2023-05-23T04:08:50;10.73;;;3.88;;
71730;SDS011;65964;43.496;3.710;2023-05-23T04:11:16;19.73;;;4.53;;
71730;SDS011;65964;43.496;3.710;2023-05-23T04:13:42;9.80;;;3.60;;
71730;SDS011;65964;43.496;3.710;2023-05-23T04:16:10;8.25;;;3.35;;
71730;SDS011;65964;43.496;3.710;2023-05-23T04:18:37;20.70;;;5.22;;
71730;SDS011;65964;43.496;3.710;2023-05-23T04:21:03;10.93;;;4.20;;
71730;SDS011;65964;43.496;3.710;2023-05-23T04:23:29;30.92;;;5.13;;
71730;SDS011;65964;43.496;3.710;2023-05-23T04:25:55;13.15;;;3.95;;
71730;SDS011;65964;43.496;3.710;2023-05-23T04:28:21;8.27;;;3.58;;
71730;SDS011;65964;43.496;3.710;2023-05-23T04:30:47;18.63;;;4.60;;
71730;SDS011;65964;43.496;3.710;2023-05-23T04:33:14;6.88;;;4.07;;
71730;SDS011;65964;43.496;3.710;2023-05-23T04:35:41;14.48;;;4.10;;
71730;SDS011;65964;43.496;3.710;2023-05-23T04:38:08;8.45;;;3.60;;
71730;SDS011;65964;43.496;3.710;2023-05-23T04:40:34;16.05;;;3.85;;
71730;SDS011;65964;43.496;3.710;2023-05-23T04:43:00;7.22;;;4.00;;
71730;SDS011;65964;43.496;3.710;2023-05-23T04:45:26;12.32;;;4.18;;
71730;SDS011;65964;43.496;3.710;2023-05-23T04:47:52;20.67;;;5.93;;
71730;SDS011;65964;43.496;3.710;2023-05-23T04:50:21;8.30;;;4.32;;
71730;SDS011;65964;43.496;3.710;2023-05-23T04:52:48;14.40;;;4.65;;
71730;SDS011;65964;43.496;3.710;2023-05-23T04:55:14;16.80;;;4.53;;
71730;SDS011;65964;43.496;3.710;2023-05-23T04:57:40;13.07;;;4.47;;
71730;SDS011;65964;43.496;3.710;2023-05-23T05:00:06;21.15;;;4.78;;
71730;SDS011;65964;43.496;3.710;2023-05-23T05:02:34;12.30;;;4.30;;
71730;SDS011;65964;43.496;3.710;2023-05-23T05:05:01;16.85;;;4.70;;
71730;SDS011;65964;43.496;3.710;2023-05-23T05:07:28;14.10;;;5.15;;
71730;SDS011;65964;43.496;3.710;2023-05-23T05:09:54;18.75;;;5.05;;
71730;SDS011;65964;43.496;3.710;2023-05-23T05:12:20;12.50;;;4.25;;
71730;SDS011;65964;43.496;3.710;2023-05-23T05:14:46;17.83;;;5.05;;
71730;SDS011;65964;43.496;3.710;2023-05-23T05:17:12;20.20;;;5.72;;
71730;SDS011;65964;43.496;3.710;2023-05-23T05:19:38;10.05;;;3.88;;
71730;SDS011;65964;43.496;3.710;2023-05-23T05:22:04;14.13;;;4.40;;
71730;SDS011;65964;43.496;3.710;2023-05-23T05:24:31;10.48;;;4.60;;
71730;SDS011;65964;43.496;3.710;2023-05-23T05:26:58;18.15;;;4.68;;
71730;SDS011;65964;43.496;3.710;2023-05-23T05:29:24;16.02;;;4.57;;
71730;SDS011;65964;43.496;3.710;2023-05-23T05:31:50;24.40;;;6.15;;
71730;SDS011;65964;43.496;3.710;2023-05-23T05:34:17;25.00;;;6.07;;
71730;SDS011;65964;43.496;3.710;2023-05-23T05:36:43;17.85;;;5.35;;
71730;SDS011;65964;43.496;3.710;2023-05-23T05:39:13;14.23;;;4.65;;
71730;SDS011;65964;43.496;3.710;2023-05-23T05:41:40;15.50;;;4.35;;
71730;SDS011;65964;43.496;3.710;2023-05-23T05:44:06;17.13;;;5.28;;
71730;SDS011;65964;43.496;3.710;2023-05-23T05:46:33;11.13;;;4.28;;
71730;SDS011;65964;43.496;3.710;2023-05-23T05:48:59;19.02;;;4.45;;
71730;SDS011;65964;43.496;3.710;2023-05-23T05:51:25;14.23;;;4.80;;
71730;SDS011;65964;43.496;3.710;2023-05-23T05:53:51;17.98;;;5.15;;
71730;SDS011;65964;43.496;3.710;2023-05-23T05:56:17;21.10;;;5.70;;
71730;SDS011;65964;43.496;3.710;2023-05-23T05:58:43;17.60;;;5.55;;
71730;SDS011;65964;43.496;3.710;2023-05-23T06:01:09;14.38;;;4.85;;
71730;SDS011;65964;43.496;3.710;2023-05-23T06:03:35;21.85;;;6.00;;
71730;SDS011;65964;43.496;3.710;2023-05-23T06:06:01;16.30;;;5.30;;
71730;SDS011;65964;43.496;3.710;2023-05-23T06:08:27;18.75;;;5.65;;
71730;SDS011;65964;43.496;3.710;2023-05-23T06:10:53;19.40;;;5.00;;
71730;SDS011;65964;43.496;3.710;2023-05-23T06:13:20;11.52;;;4.28;;
71730;SDS011;65964;43.496;3.710;2023-05-23T06:15:46;13.45;;;4.47;;
71730;SDS011;65964;43.496;3.710;2023-05-23T06:18:12;15.00;;;4.30;;
71730;SDS011;65964;43.496;3.710;2023-05-23T06:20:38;26.02;;;5.63;;
71730;SDS011;65964;43.496;3.710;2023-05-23T06:23:04;15.52;;;3.85;;
71730;SDS011;65964;43.496;3.710;2023-05-23T06:25:32;10.10;;;3.95;;
71730;SDS011;65964;43.496;3.710;2023-05-23T06:27:58;12.60;;;3.80;;
71730;SDS011;65964;43.496;3.710;2023-05-23T06:30:24;18.60;;;5.07;;
71730;SDS011;65964;43.496;3.710;2023-05-23T06:32:50;17.67;;;4.70;;
71730;SDS011;65964;43.496;3.710;2023-05-23T06:35:16;16.65;;;4.78;;
71730;SDS011;65964;43.496;3.710;2023-05-23T06:37:42;13.88;;;4.10;;
71730;SDS011;65964;43.496;3.710;2023-05-23T06:40:12;13.50;;;3.58;;
71730;SDS011;65964;43.496;3.710;2023-05-23T06:42:39;26.10;;;5.93;;
71730;SDS011;65964;43.496;3.710;2023-05-23T06:45:05;12.10;;;3.92;;
71730;SDS011;65964;43.496;3.710;2023-05-23T06:47:31;11.13;;;3.72;;
71730;SDS011;65964;43.496;3.710;2023-05-23T06:49:57;6.68;;;3.17;;
71730;SDS011;65964;43.496;3.710;2023-05-23T06:52:23;15.77;;;4.25;;
71730;SDS011;65964;43.496;3.710;2023-05-23T06:54:49;10.30;;;3.72;;
71730;SDS011;65964;43.496;3.710;2023-05-23T06:57:16;6.68;;;3.17;;
71730;SDS011;65964;43.496;3.710;2023-05-23T06:59:42;6.78;;;3.50;;
71730;SDS011;65964;43.496;3.710;2023-05-23T07:02:08;12.10;;;4.28;;
71730;SDS011;65964;43.496;3.710;2023-05-23T07:04:34;7.15;;;3.80;;
71730;SDS011;65964;43.496;3.710;2023-05-23T07:07:00;19.48;;;4.78;;
71730;SDS011;65964;43.496;3.710;2023-05-23T07:09:26;8.95;;;3.80;;
71730;SDS011;65964;43.496;3.710;2023-05-23T07:11:52;16.42;;;4.78;;
71730;SDS011;65964;43.496;3.710;2023-05-23T07:14:18;7.50;;;3.13;;
71730;SDS011;65964;43.496;3.710;2023-05-23T07:16:44;13.93;;;6.22;;
71730;SDS011;65964;43.496;3.710;2023-05-23T07:19:10;7.35;;;5.15;;
71730;SDS011;65964;43.496;3.710;2023-05-23T07:21:36;8.65;;;3.80;;
71730;SDS011;65964;43.496;3.710;2023-05-23T07:24:02;5.15;;;3.15;;
71730;SDS011;65964;43.496;3.710;2023-05-23T07:26:28;5.38;;;3.38;;
71730;SDS011;65964;43.496;3.710;2023-05-23T07:28:55;8.30;;;3.90;;
71730;SDS011;65964;43.496;3.710;2023-05-23T07:31:21;8.18;;;3.67;;
71730;SDS011;65964;43.496;3.710;2023-05-23T07:33:47;7.55;;;3.83;;
71730;SDS011;65964;43.496;3.710;2023-05-23T07:36:13;7.93;;;3.97;;
71730;SDS011;65964;43.496;3.710;2023-05-23T07:38:40;6.57;;;3.97;;
71730;SDS011;65964;43.496;3.710;2023-05-23T07:41:06;9.75;;;4.30;;
71730;SDS011;65964;43.496;3.710;2023-05-23T07:43:32;5.70;;;3.80;;
71730;SDS011;65964;43.496;3.710;2023-05-23T07:45:58;9.52;;;4.80;;
71730;SDS011;65964;43.496;3.710;2023-05-23T07:48:24;6.85;;;4.20;;
71730;SDS011;65964;43.496;3.710;2023-05-23T07:50:51;7.57;;;4.72;;
71730;SDS011;65964;43.496;3.710;2023-05-23T07:53:19;8.90;;;4.35;;
71730;SDS011;65964;43.496;3.710;2023-05-23T07:55:46;10.32;;;4.60;;
71730;SDS011;65964;43.496;3.710;2023-05-23T07:58:12;12.63;;;4.70;;
71730;SDS011;65964;43.496;3.710;2023-05-23T08:00:38;11.60;;;5.30;;
71730;SDS011;65964;43.496;3.710;2023-05-23T08:03:05;7.50;;;5.15;;
71730;SDS011;65964;43.496;3.710;2023-05-23T08:05:31;10.50;;;5.05;;
71730;SDS011;65964;43.496;3.710;2023-05-23T08:07:57;7.70;;;4.80;;
71730;SDS011;65964;43.496;3.710;2023-05-23T08:10:23;10.52;;;5.40;;
71730;SDS011;65964;43.496;3.710;2023-05-23T08:12:52;10.98;;;5.28;;
71730;SDS011;65964;43.496;3.710;2023-05-23T08:15:18;8.35;;;5.13;;
71730;SDS011;65964;43.496;3.710;2023-05-23T08:17:45;6.57;;;5.47;;
71730;SDS011;65964;43.496;3.710;2023-05-23T08:20:11;11.15;;;5.65;;
71730;SDS011;65964;43.496;3.710;2023-05-23T08:22:37;7.97;;;5.38;;
71730;SDS011;65964;43.496;3.710;2023-05-23T08:25:03;7.05;;;5.72;;
71730;SDS011;65964;43.496;3.710;2023-05-23T08:27:29;7.95;;;6.25;;
71730;SDS011;65964;43.496;3.710;2023-05-23T08:29:56;11.52;;;6.10;;
71730;SDS011;65964;43.496;3.710;2023-05-23T08:32:22;11.20;;;6.53;;
71730;SDS011;65964;43.496;3.710;2023-05-23T08:34:48;7.45;;;5.93;;
71730;SDS011;65964;43.496;3.710;2023-05-23T08:37:14;10.00;;;5.80;;
71730;SDS011;65964;43.496;3.710;2023-05-23T08:39:40;9.75;;;6.22;;
71730;SDS011;65964;43.496;3.710;2023-05-23T08:42:06;10.00;;;6.50;;
71730;SDS011;65964;43.496;3.710;2023-05-23T08:44:32;8.00;;;5.43;;
71730;SDS011;65964;43.496;3.710;2023-05-23T08:46:59;20.05;;;7.30;;
71730;SDS011;65964;43.496;3.710;2023-05-23T08:49:29;12.35;;;6.63;;
71730;SDS011;65964;43.496;3.710;2023-05-23T08:51:56;11.00;;;6.07;;
71730;SDS011;65964;43.496;3.710;2023-05-23T08:54:25;17.65;;;7.38;;
71730;SDS011;65964;43.496;3.710;2023-05-23T08:56:53;7.75;;;5.57;;
71730;SDS011;65964;43.496;3.710;2023-05-23T08:59:19;8.57;;;5.78;;
71730;SDS011;65964;43.496;3.710;2023-05-23T09:01:46;17.27;;;6.72;;
71730;SDS011;65964;43.496;3.710;2023-05-23T09:04:13;7.63;;;5.50;;
71730;SDS011;65964;43.496;3.710;2023-05-23T09:06:39;11.43;;;6.00;;
71730;SDS011;65964;43.496;3.710;2023-05-23T09:09:05;8.00;;;6.32;;
71730;SDS011;65964;43.496;3.710;2023-05-23T09:11:32;10.02;;;5.78;;
71730;SDS011;65964;43.496;3.710;2023-05-23T09:13:59;9.77;;;6.18;;
71730;SDS011;65964;43.496;3.710;2023-05-23T09:16:30;7.57;;;5.35;;
71730;SDS011;65964;43.496;3.710;2023-05-23T09:18:56;8.05;;;5.93;;
71730;SDS011;65964;43.496;3.710;2023-05-23T09:21:23;9.25;;;6.10;;
71730;SDS011;65964;43.496;3.710;2023-05-23T09:23:49;7.95;;;5.97;;
71730;SDS011;65964;43.496;3.710;2023-05-23T09:26:15;10.05;;;5.72;;
71730;SDS011;65964;43.496;3.710;2023-05-23T09:28:42;11.93;;;6.35;;
71730;SDS011;65964;43.496;3.710;2023-05-23T09:31:09;6.72;;;5.60;;
71730;SDS011;65964;43.496;3.710;2023-05-23T09:33:37;12.73;;;6.55;;
71730;SDS011;65964;43.496;3.710;2023-05-23T09:36:04;11.30;;;6.05;;
71730;SDS011;65964;43.496;3.710;2023-05-23T09:38:31;7.88;;;6.20;;
71730;SDS011;65964;43.496;3.710;2023-05-23T09:40:57;9.18;;;5.80;;
71730;SDS011;65964;43.496;3.710;2023-05-23T09:43:23;8.10;;;5.95;;
71730;SDS011;65964;43.496;3.710;2023-05-23T09:45:51;7.90;;;5.40;;
71730;SDS011;65964;43.496;3.710;2023-05-23T09:48:17;11.77;;;6.57;;
71730;SDS011;65964;43.496;3.710;2023-05-23T09:50:44;10.60;;;6.45;;
71730;SDS011;65964;43.496;3.710;2023-05-23T09:53:11;10.63;;;6.32;;
71730;SDS011;65964;43.496;3.710;2023-05-23T09:55:37;9.77;;;6.20;;
71730;SDS011;65964;43.496;3.710;2023-05-23T09:58:04;8.73;;;6.43;;
71730;SDS011;65964;43.496;3.710;2023-05-23T10:00:30;11.43;;;7.05;;
71730;SDS011;65964;43.496;3.710;2023-05-23T10:02:57;10.13;;;6.30;;
71730;SDS011;65964;43.496;3.710;2023-05-23T10:05:45;8.73;;;6.20;;
71730;SDS011;65964;43.496;3.710;2023-05-23T10:08:17;12.63;;;7.40;;
71730;SDS011;65964;43.496;3.710;2023-05-23T10:15:53;10.38;;;6.88;;
71730;SDS011;65964;43.496;3.710;2023-05-23T10:18:20;10.55;;;6.65;;
71730;SDS011;65964;43.496;3.710;2023-05-23T10:20:48;7.50;;;6.05;;
71730;SDS011;65964;43.496;3.710;2023-05-23T10:23:16;7.78;;;6.53;;
71730;SDS011;65964;43.496;3.710;2023-05-23T10:25:42;10.77;;;6.53;;
71730;SDS011;65964;43.496;3.710;2023-05-23T10:28:09;8.65;;;6.55;;
71730;SDS011;65964;43.496;3.710;2023-05-23T10:30:35;10.45;;;6.53;;
71730;SDS011;65964;43.496;3.710;2023-05-23T10:33:01;8.27;;;6.53;;
71730;SDS011;65964;43.496;3.710;2023-05-23T10:38:09;8.80;;;6.90;;
71730;SDS011;65964;43.496;3.710;2023-05-23T10:46:21;8.93;;;7.28;;
71730;SDS011;65964;43.496;3.710;2023-05-23T10:48:47;9.73;;;7.45;;
71730;SDS011;65964;43.496;3.710;2023-05-23T10:51:18;12.23;;;8.15;;
71730;SDS011;65964;43.496;3.710;2023-05-23T10:53:51;9.70;;;7.28;;
71730;SDS011;65964;43.496;3.710;2023-05-23T10:56:18;9.70;;;7.78;;
71730;SDS011;65964;43.496;3.710;2023-05-23T10:58:50;11.20;;;7.88;;
71730;SDS011;65964;43.496;3.710;2023-05-23T11:01:16;14.52;;;8.60;;
71730;SDS011;65964;43.496;3.710;2023-05-23T11:09:16;13.27;;;9.07;;
71730;SDS011;65964;43.496;3.710;2023-05-23T11:17:48;13.47;;;9.33;;
71730;SDS011;65964;43.496;3.710;2023-05-23T11:19:58;12.63;;;9.80;;
71730;SDS011;65964;43.496;3.710;2023-05-23T11:22:28;13.98;;;9.38;;
71730;SDS011;65964;43.496;3.710;2023-05-23T11:24:55;13.43;;;9.68;;
71730;SDS011;65964;43.496;3.710;2023-05-23T11:27:27;13.65;;;9.85;;
71730;SDS011;65964;43.496;3.710;2023-05-23T11:29:55;12.43;;;9.50;;
71730;SDS011;65964;43.496;3.710;2023-05-23T11:32:22;16.85;;;11.13;;
71730;SDS011;65964;43.496;3.710;2023-05-23T11:34:48;12.45;;;9.93;;
71730;SDS011;65964;43.496;3.710;2023-05-23T11:37:14;11.40;;;9.57;;
71730;SDS011;65964;43.496;3.710;2023-05-23T11:39:41;18.88;;;10.23;;
71730;SDS011;65964;43.496;3.710;2023-05-23T11:42:07;14.18;;;10.10;;
71730;SDS011;65964;43.496;3.710;2023-05-23T11:44:33;16.35;;;10.73;;
71730;SDS011;65964;43.496;3.710;2023-05-23T11:47:03;19.30;;;10.82;;
71730;SDS011;65964;43.496;3.710;2023-05-23T11:49:30;15.25;;;11.68;;
71730;SDS011;65964;43.496;3.710;2023-05-23T11:51:57;12.93;;;10.52;;
71730;SDS011;65964;43.496;3.710;2023-05-23T11:54:24;16.42;;;12.05;;
71730;SDS011;65964;43.496;3.710;2023-05-23T11:56:51;12.73;;;10.40;;
71730;SDS011;65964;43.496;3.710;2023-05-23T11:59:17;13.05;;;10.55;;
71730;SDS011;65964;43.496;3.710;2023-05-23T12:01:43;48.97;;;44.63;;
71730;SDS011;65964;43.496;3.710;2023-05-23T12:04:09;14.23;;;12.45;;
71730;SDS011;65964;43.496;3.710;2023-05-23T12:06:37;23.17;;;11.52;;
71730;SDS011;65964;43.496;3.710;2023-05-23T12:09:04;15.60;;;10.75;;
71730;SDS011;65964;43.496;3.710;2023-05-23T12:11:31;17.13;;;11.43;;
71730;SDS011;65964;43.496;3.710;2023-05-23T12:13:57;17.30;;;10.65;;
71730;SDS011;65964;43.496;3.710;2023-05-23T12:16:30;13.32;;;10.70;;
71730;SDS011;65964;43.496;3.710;2023-05-23T12:18:56;19.67;;;11.00;;
71730;SDS011;65964;43.496;3.710;2023-05-23T12:21:26;21.38;;;10.73;;
71730;SDS011;65964;43.496;3.710;2023-05-23T12:24:43;15.30;;;11.00;;
71730;SDS011;65964;43.496;3.710;2023-05-23T12:26:58;17.88;;;11.95;;
71730;SDS011;65964;43.496;3.710;2023-05-23T12:29:31;18.70;;;11.35;;
71730;SDS011;65964;43.496;3.710;2023-05-23T12:31:58;17.40;;;11.57;;
71730;SDS011;65964;43.496;3.710;2023-05-23T12:34:24;18.58;;;11.98;;
71730;SDS011;65964;43.496;3.710;2023-05-23T12:36:59;19.00;;;11.32;;
71730;SDS011;65964;43.496;3.710;2023-05-23T12:39:28;14.30;;;10.57;;
71730;SDS011;65964;43.496;3.710;2023-05-23T12:41:54;13.98;;;10.57;;
71730;SDS011;65964;43.496;3.710;2023-05-23T12:44:22;18.02;;;11.25;;
71730;SDS011;65964;43.496;3.710;2023-05-23T12:46:48;17.45;;;12.20;;
71730;SDS011;65964;43.496;3.710;2023-05-23T12:49:14;14.63;;;10.20;;
71730;SDS011;65964;43.496;3.710;2023-05-23T12:51:40;13.80;;;10.43;;
71730;SDS011;65964;43.496;3.710;2023-05-23T12:54:07;12.98;;;10.20;;
71730;SDS011;65964;43.496;3.710;2023-05-23T12:56:33;13.48;;;10.07;;
71730;SDS011;65964;43.496;3.710;2023-05-23T12:58:59;13.75;;;10.02;;
71730;SDS011;65964;43.496;3.710;2023-05-23T13:01:26;14.48;;;10.48;;
71730;SDS011;65964;43.496;3.710;2023-05-23T13:03:52;13.60;;;10.45;;
71730;SDS011;65964;43.496;3.710;2023-05-23T13:06:18;15.73;;;10.48;;
71730;SDS011;65964;43.496;3.710;2023-05-23T13:08:44;14.40;;;10.30;;
71730;SDS011;65964;43.496;3.710;2023-05-23T13:11:10;14.07;;;10.43;;
71730;SDS011;65964;43.496;3.710;2023-05-23T13:13:37;13.10;;;9.82;;
71730;SDS011;65964;43.496;3.710;2023-05-23T13:16:03;12.40;;;10.05;;
71730;SDS011;65964;43.496;3.710;2023-05-23T13:18:29;19.65;;;10.68;;
71730;SDS011;65964;43.496;3.710;2023-05-23T13:20:56;14.05;;;10.43;;
71730;SDS011;65964;43.496;3.710;2023-05-23T13:23:22;15.05;;;10.48;;
71730;SDS011;65964;43.496;3.710;2023-05-23T13:25:49;16.52;;;10.70;;
71730;SDS011;65964;43.496;3.710;2023-05-23T13:28:15;15.15;;;10.23;;
71730;SDS011;65964;43.496;3.710;2023-05-23T13:30:42;15.85;;;11.32;;
71730;SDS011;65964;43.496;3.710;2023-05-23T13:33:08;13.60;;;9.85;;
71730;SDS011;65964;43.496;3.710;2023-05-23T13:35:34;14.70;;;10.80;;
71730;SDS011;65964;43.496;3.710;2023-05-23T13:38:00;13.35;;;10.73;;
71730;SDS011;65964;43.496;3.710;2023-05-23T13:40:26;15.57;;;10.93;;
71730;SDS011;65964;43.496;3.710;2023-05-23T13:42:52;15.20;;;10.73;;
71730;SDS011;65964;43.496;3.710;2023-05-23T13:45:18;19.30;;;10.40;;
71730;SDS011;65964;43.496;3.710;2023-05-23T13:47:46;12.13;;;10.18;;
71730;SDS011;65964;43.496;3.710;2023-05-23T13:50:12;16.20;;;10.27;;
71730;SDS011;65964;43.496;3.710;2023-05-23T13:52:38;15.60;;;10.55;;
71730;SDS011;65964;43.496;3.710;2023-05-23T13:55:05;13.52;;;10.02;;
71730;SDS011;65964;43.496;3.710;2023-05-23T13:57:31;9.88;;;6.40;;
71730;SDS011;65964;43.496;3.710;2023-05-23T13:59:57;11.93;;;4.97;;
71730;SDS011;65964;43.496;3.710;2023-05-23T14:02:23;13.15;;;5.28;;
71730;SDS011;65964;43.496;3.710;2023-05-23T14:04:50;12.38;;;4.82;;
71730;SDS011;65964;43.496;3.710;2023-05-23T14:07:17;8.57;;;6.40;;
71730;SDS011;65964;43.496;3.710;2023-05-23T14:09:43;13.57;;;8.05;;
71730;SDS011;65964;43.496;3.710;2023-05-23T14:12:09;9.65;;;6.60;;
71730;SDS011;65964;43.496;3.710;2023-05-23T14:14:35;7.32;;;4.90;;
71730;SDS011;65964;43.496;3.710;2023-05-23T14:17:01;12.18;;;4.60;;
71730;SDS011;65964;43.496;3.710;2023-05-23T14:19:27;13.75;;;4.72;;
71730;SDS011;65964;43.496;3.710;2023-05-23T14:21:53;9.20;;;4.07;;
71730;SDS011;65964;43.496;3.710;2023-05-23T14:24:19;9.70;;;3.80;;
71730;SDS011;65964;43.496;3.710;2023-05-23T14:26:46;19.92;;;4.97;;
71730;SDS011;65964;43.496;3.710;2023-05-23T14:29:13;7.20;;;4.05;;
71730;SDS011;65964;43.496;3.710;2023-05-23T14:31:40;6.30;;;4.00;;
71730;SDS011;65964;43.496;3.710;2023-05-23T14:34:06;14.80;;;4.90;;
71730;SDS011;65964;43.496;3.710;2023-05-23T14:36:32;19.92;;;5.95;;
71730;SDS011;65964;43.496;3.710;2023-05-23T14:38:58;12.45;;;4.88;;
71730;SDS011;65964;43.496;3.710;2023-05-23T14:41:25;13.40;;;5.32;;
71730;SDS011;65964;43.496;3.710;2023-05-23T14:43:52;15.00;;;5.80;;
71730;SDS011;65964;43.496;3.710;2023-05-23T14:46:18;15.73;;;5.95;;
71730;SDS011;65964;43.496;3.710;2023-05-23T14:48:45;10.27;;;5.30;;
71730;SDS011;65964;43.496;3.710;2023-05-23T14:51:11;9.32;;;5.10;;
71730;SDS011;65964;43.496;3.710;2023-05-23T14:53:37;24.60;;;6.18;;
71730;SDS011;65964;43.496;3.710;2023-05-23T14:56:03;18.45;;;6.25;;
71730;SDS011;65964;43.496;3.710;2023-05-23T14:58:29;9.32;;;5.38;;
71730;SDS011;65964;43.496;3.710;2023-05-23T15:00:55;12.50;;;5.35;;
71730;SDS011;65964;43.496;3.710;2023-05-23T15:03:21;39.95;;;7.03;;
71730;SDS011;65964;43.496;3.710;2023-05-23T15:05:47;18.40;;;6.38;;